createdAt,value
2023-02-27T00:00:16.671Z,100791.36
2023-02-27T00:03:03.725Z,100804.64
2023-02-27T00:05:31.184Z,100805.95
2023-02-27T00:07:58.234Z,100807.61
2023-02-27T00:10:25.281Z,100807.04
2023-02-27T00:12:52.484Z,100810.73
2023-02-27T00:15:20.344Z,100804.89
2023-02-27T00:17:47.385Z,100802.49
2023-02-27T00:20:17.131Z,100799.50
2023-02-27T00:22:45.870Z,100801.00
2023-02-27T00:25:14.050Z,100802.09
2023-02-27T00:27:42.217Z,100806.92
2023-02-27T00:30:12.389Z,100809.63
2023-02-27T00:32:40.407Z,100809.38
2023-02-27T00:35:09.820Z,100804.61
2023-02-27T00:37:37.699Z,100807.73
2023-02-27T00:40:06.551Z,100811.05
2023-02-27T00:42:34.602Z,100814.26
2023-02-27T00:45:02.995Z,100816.70
2023-02-27T00:47:32.209Z,100816.77
2023-02-27T00:49:59.425Z,100819.52
2023-02-27T00:52:27.086Z,100822.77
2023-02-27T00:54:54.206Z,100818.34
2023-02-27T00:57:21.541Z,100817.00
2023-02-27T00:59:50.403Z,100815.31
2023-02-27T01:02:17.725Z,100821.27
2023-02-27T01:04:45.012Z,100824.77
2023-02-27T01:07:12.241Z,100827.64
2023-02-27T01:09:39.533Z,100832.58
2023-02-27T01:12:07.986Z,100833.58
2023-02-27T01:14:35.102Z,100838.06
2023-02-27T01:17:03.278Z,100838.39
2023-02-27T01:19:31.889Z,100839.89
2023-02-27T01:21:59.052Z,100839.02
2023-02-27T01:24:26.760Z,100838.80
2023-02-27T01:26:53.880Z,100838.79
2023-02-27T01:29:20.958Z,100836.52
2023-02-27T01:31:49.243Z,100837.83
2023-02-27T01:34:17.148Z,100840.48
2023-02-27T01:36:44.582Z,100841.54
2023-02-27T01:39:11.735Z,100843.49
2023-02-27T01:41:40.953Z,100840.86
2023-02-27T01:44:11.868Z,100845.43
2023-02-27T01:46:39.757Z,100845.88
2023-02-27T01:49:13.448Z,100848.71
2023-02-27T01:51:46.435Z,100852.61
2023-02-27T01:54:17.983Z,100853.08
2023-02-27T01:56:45.415Z,100855.95
2023-02-27T01:59:15.358Z,100865.11
2023-02-27T02:01:43.146Z,100868.44
2023-02-27T02:04:22.609Z,100873.95
2023-02-27T02:06:58.286Z,100874.02
2023-02-27T02:09:26.254Z,100874.25
2023-02-27T02:11:54.766Z,100875.09
2023-02-27T02:14:21.846Z,100874.38
2023-02-27T02:17:12.781Z,100878.11
2023-02-27T02:19:58.737Z,100877.23
2023-02-27T02:23:11.433Z,100880.56
2023-02-27T02:25:48.286Z,100880.56
2023-02-27T02:28:43.488Z,100879.52
2023-02-27T02:31:19.440Z,100878.84
2023-02-27T02:34:16.141Z,100883.96
2023-02-27T02:37:01.927Z,100889.42
2023-02-27T02:39:42.083Z,100885.63
2023-02-27T02:42:22.223Z,100884.91
2023-02-27T02:45:00.321Z,100889.46
2023-02-27T02:47:49.514Z,100881.29
2023-02-27T02:50:29.098Z,100885.38
2023-02-27T02:53:31.064Z,100890.85
2023-02-27T02:56:11.432Z,100900.85
2023-02-27T02:58:43.473Z,100906.15
2023-02-27T03:01:22.128Z,100910.30
2023-02-27T03:03:56.901Z,100914.05
2023-02-27T03:06:30.954Z,100915.80
2023-02-27T03:09:22.382Z,100916.88
2023-02-27T03:11:52.941Z,100922.87
2023-02-27T03:14:26.178Z,100926.15
2023-02-27T03:16:55.967Z,100926.54
2023-02-27T03:19:33.792Z,100926.05
2023-02-27T03:22:15.458Z,100925.92
2023-02-27T03:25:12.469Z,100927.84
2023-02-27T03:27:53.171Z,100930.98
2023-02-27T03:30:33.219Z,100931.45
2023-02-27T03:33:19.122Z,100927.04
2023-02-27T03:36:08.390Z,100934.61
2023-02-27T03:38:51.970Z,100943.05
2023-02-27T03:41:34.404Z,100953.13
2023-02-27T03:44:36.963Z,100961.13
2023-02-27T03:47:04.316Z,100965.45
2023-02-27T03:49:32.031Z,100959.95
2023-02-27T03:51:59.546Z,100964.80
2023-02-27T03:54:34.711Z,100970.55
2023-02-27T03:57:05.520Z,100974.98
2023-02-27T03:59:33.971Z,100981.27
2023-02-27T04:02:02.800Z,100987.90
2023-02-27T04:04:32.210Z,100985.64
2023-02-27T04:07:37.788Z,100989.95
2023-02-27T04:10:20.401Z,100994.45
2023-02-27T04:13:02.906Z,100992.80
2023-02-27T04:15:48.736Z,100995.92
2023-02-27T04:18:37.816Z,100994.32
2023-02-27T04:21:14.543Z,100990.56
2023-02-27T04:23:47.378Z,100996.20
2023-02-27T04:26:36.997Z,100997.27
2023-02-27T04:29:45.860Z,100998.89
2023-02-27T04:32:22.473Z,101006.38
2023-02-27T04:34:55.830Z,101003.75
2023-02-27T04:37:27.591Z,101007.56
2023-02-27T04:40:02.024Z,101011.73
2023-02-27T04:42:40.993Z,101009.89
2023-02-27T04:45:11.884Z,101014.48
2023-02-27T04:47:57.880Z,101015.80
2023-02-27T04:50:33.089Z,101014.79
2023-02-27T04:53:16.450Z,101018.44
2023-02-27T04:55:49.991Z,101022.04
2023-02-27T04:58:40.930Z,101018.36
2023-02-27T05:01:39.990Z,101015.31
2023-02-27T05:04:12.557Z,101022.67
2023-02-27T05:06:43.516Z,101020.27
2023-02-27T05:09:41.235Z,101020.36
2023-02-27T05:12:28.869Z,101024.81
2023-02-27T05:15:22.664Z,101030.45
2023-02-27T05:18:02.021Z,101037.46
2023-02-27T05:20:40.289Z,101043.63
2023-02-27T05:23:25.457Z,101046.04
2023-02-27T05:26:02.332Z,101048.02
2023-02-27T05:28:42.613Z,101055.91
2023-02-27T05:31:18.693Z,101060.99
2023-02-27T05:33:53.384Z,101060.92
2023-02-27T05:36:30.768Z,101065.84
2023-02-27T05:39:04.657Z,101069.43
2023-02-27T05:41:44.992Z,101074.26
2023-02-27T05:44:17.461Z,101078.63
2023-02-27T05:47:05.319Z,101082.99
2023-02-27T05:49:37.549Z,101086.75
2023-02-27T05:52:10.711Z,101092.15
2023-02-27T05:54:59.346Z,101095.10
2023-02-27T05:57:41.164Z,101102.93
2023-02-27T06:00:17.831Z,101107.38
2023-02-27T06:02:45.506Z,101113.06
2023-02-27T06:05:17.883Z,101118.80
2023-02-27T06:07:45.036Z,101118.02
2023-02-27T06:10:17.581Z,101117.32
2023-02-27T06:12:44.908Z,101119.67
2023-02-27T06:15:13.162Z,101120.77
2023-02-27T06:17:40.442Z,101122.11
2023-02-27T06:20:08.654Z,101123.68
2023-02-27T06:22:36.038Z,101120.31
2023-02-27T06:25:03.698Z,101120.75
2023-02-27T06:27:30.856Z,101124.89
2023-02-27T06:29:57.936Z,101119.96
2023-02-27T06:32:28.152Z,101121.46
2023-02-27T06:34:55.411Z,101120.63
2023-02-27T06:37:22.632Z,101119.08
2023-02-27T06:39:49.805Z,101121.33
2023-02-27T06:42:17.012Z,101124.39
2023-02-27T06:44:44.209Z,101130.08
2023-02-27T06:47:11.280Z,101133.33
2023-02-27T06:49:38.296Z,101138.83
2023-02-27T06:52:05.399Z,101138.61
2023-02-27T06:54:32.503Z,101146.83
2023-02-27T06:57:00.111Z,101148.19
2023-02-27T06:59:27.295Z,101149.00
2023-02-27T07:01:54.449Z,101151.05
2023-02-27T07:04:21.596Z,101155.99
2023-02-27T07:07:35.109Z,101160.60
2023-02-27T07:09:36.449Z,101167.58
2023-02-27T07:12:04.960Z,101169.67
2023-02-27T07:14:32.597Z,101168.64
2023-02-27T07:17:03.424Z,101172.37
2023-02-27T07:19:32.527Z,101169.83
2023-02-27T07:21:59.843Z,101177.98
2023-02-27T07:24:26.978Z,101181.02
2023-02-27T07:26:54.136Z,101183.51
2023-02-27T07:29:21.301Z,101186.23
2023-02-27T07:31:48.746Z,101187.34
2023-02-27T07:34:16.121Z,101188.53
2023-02-27T07:36:43.642Z,101191.30
2023-02-27T07:39:13.046Z,101189.59
2023-02-27T07:41:40.828Z,101196.20
2023-02-27T07:44:11.570Z,101199.39
2023-02-27T07:46:38.773Z,101205.61
2023-02-27T07:49:05.817Z,101204.86
2023-02-27T07:51:32.937Z,101207.46
2023-02-27T07:53:59.987Z,101207.20
2023-02-27T07:56:27.627Z,101201.71
2023-02-27T07:58:55.314Z,101205.29
2023-02-27T08:01:22.389Z,101202.41
2023-02-27T08:03:49.524Z,101201.62
2023-02-27T08:06:16.661Z,101206.13
2023-02-27T08:08:43.794Z,101204.96
2023-02-27T08:11:11.531Z,101200.04
2023-02-27T08:16:26.742Z,101205.63
2023-02-27T08:18:54.470Z,101206.62
2023-02-27T08:21:21.696Z,101206.36
2023-02-27T08:23:48.912Z,101209.36
2023-02-27T08:26:16.016Z,101217.00
2023-02-27T08:28:43.531Z,101216.89
2023-02-27T08:31:10.909Z,101217.07
2023-02-27T08:33:37.985Z,101219.54
2023-02-27T08:36:05.739Z,101220.94
2023-02-27T08:38:33.040Z,101222.09
2023-02-27T08:41:00.169Z,101224.11
2023-02-27T08:43:27.322Z,101233.15
2023-02-27T08:45:54.555Z,101240.41
2023-02-27T08:48:24.385Z,101246.92
2023-02-27T08:50:52.507Z,101247.31
2023-02-27T08:53:19.755Z,101250.44
2023-02-27T08:55:51.466Z,101247.73
2023-02-27T08:58:18.617Z,101252.34
2023-02-27T09:00:46.595Z,101255.48
2023-02-27T09:03:14.166Z,101256.45
2023-02-27T09:05:42.314Z,101256.85
2023-02-27T09:08:09.853Z,101250.17
2023-02-27T09:10:37.156Z,101248.33
2023-02-27T09:13:04.551Z,101248.92
2023-02-27T09:15:34.502Z,101246.89
2023-02-27T09:18:03.366Z,101248.77
2023-02-27T09:20:31.888Z,101249.96
2023-02-27T09:22:59.842Z,101250.26
2023-02-27T09:25:27.999Z,101248.48
2023-02-27T09:27:55.925Z,101254.52
2023-02-27T09:30:23.503Z,101251.94
2023-02-27T09:32:51.279Z,101251.73
2023-02-27T09:35:20.604Z,101255.09
2023-02-27T09:37:49.710Z,101258.15
2023-02-27T09:40:26.392Z,101262.94
2023-02-27T09:42:58.283Z,101267.77
2023-02-27T09:45:31.940Z,101274.10
2023-02-27T09:48:15.931Z,101274.06
2023-02-27T09:50:45.637Z,101274.61
2023-02-27T09:53:17.274Z,101279.11
2023-02-27T09:55:46.186Z,101282.80
2023-02-27T09:58:31.845Z,101283.51
2023-02-27T10:01:31.169Z,101289.13
2023-02-27T10:04:16.296Z,101291.23
2023-02-27T10:06:45.573Z,101296.91
2023-02-27T10:09:30.965Z,101296.02
2023-02-27T10:12:19.777Z,101293.36
2023-02-27T10:14:54.722Z,101290.36
2023-02-27T10:17:28.040Z,101290.14
2023-02-27T10:19:56.652Z,101290.14
2023-02-27T10:22:31.813Z,101289.67
2023-02-27T10:25:08.983Z,101285.83
2023-02-27T10:27:40.173Z,101288.54
2023-02-27T10:30:30.052Z,101284.45
2023-02-27T10:33:07.611Z,101280.93
2023-02-27T10:35:38.474Z,101282.88
2023-02-27T10:38:32.313Z,101282.05
2023-02-27T10:41:00.671Z,101283.02
2023-02-27T10:43:27.920Z,101281.23
2023-02-27T10:45:55.104Z,101285.20
2023-02-27T10:48:23.224Z,101284.58
2023-02-27T10:50:52.328Z,101285.77
2023-02-27T10:53:22.639Z,101289.63
2023-02-27T10:56:08.220Z,101285.00
2023-02-27T10:58:36.680Z,101282.67
2023-02-27T11:01:06.968Z,101287.38
2023-02-27T11:03:39.320Z,101288.67
2023-02-27T11:06:12.352Z,101292.35
2023-02-27T11:08:39.918Z,101296.02
2023-02-27T11:11:10.225Z,101301.48
2023-02-27T11:13:40.798Z,101300.43
2023-02-27T11:16:17.355Z,101292.36
2023-02-27T11:18:46.662Z,101300.85
2023-02-27T11:21:23.080Z,101300.52
2023-02-27T11:24:01.504Z,101301.36
2023-02-27T11:26:30.375Z,101295.20
2023-02-27T11:29:20.352Z,101295.36
2023-02-27T11:32:00.244Z,101307.12
2023-02-27T11:34:32.590Z,101298.88
2023-02-27T11:37:03.767Z,101295.76
2023-02-27T11:39:39.210Z,101294.80
2023-02-27T11:42:22.014Z,101291.73
2023-02-27T11:45:02.862Z,101291.38
2023-02-27T11:47:37.374Z,101295.55
2023-02-27T11:50:31.413Z,101299.57
2023-02-27T11:53:26.319Z,101295.38
2023-02-27T11:55:56.399Z,101296.15
2023-02-27T11:58:28.432Z,101292.33
2023-02-27T12:01:04.083Z,101292.86
2023-02-27T12:03:40.875Z,101285.41
2023-02-27T12:06:19.095Z,101285.69
2023-02-27T12:08:57.757Z,101282.24
2023-02-27T12:11:46.072Z,101274.66
2023-02-27T12:14:27.544Z,101276.67
2023-02-27T12:17:03.172Z,101277.81
2023-02-27T12:19:37.853Z,101275.92
2023-02-27T12:22:16.107Z,101274.82
2023-02-27T12:24:56.110Z,101278.64
2023-02-27T12:27:29.606Z,101282.38
2023-02-27T12:30:05.614Z,101280.94
2023-02-27T12:32:43.106Z,101283.19
2023-02-27T12:35:19.884Z,101288.10
2023-02-27T12:37:47.673Z,101293.32
2023-02-27T12:40:19.868Z,101295.71
2023-02-27T12:42:53.979Z,101296.13
2023-02-27T12:45:52.063Z,101295.26
2023-02-27T12:48:33.795Z,101296.71
2023-02-27T12:51:22.167Z,101294.25
2023-02-27T12:54:03.044Z,101294.20
2023-02-27T12:56:45.703Z,101299.88
2023-02-27T12:59:38.148Z,101302.51
2023-02-27T13:02:36.227Z,101310.70
2023-02-27T13:05:16.347Z,101308.58
2023-02-27T13:08:04.859Z,101303.61
2023-02-27T13:10:36.790Z,101302.12
2023-02-27T13:13:14.063Z,101300.41
2023-02-27T13:16:04.970Z,101298.48
2023-02-27T13:18:50.977Z,101301.00
2023-02-27T13:21:24.076Z,101304.17
2023-02-27T13:24:16.189Z,101306.20
2023-02-27T13:26:58.873Z,101306.85
2023-02-27T13:29:34.998Z,101310.47
2023-02-27T13:32:10.241Z,101318.60
2023-02-27T13:34:41.862Z,101314.88
2023-02-27T13:37:10.059Z,101313.93
2023-02-27T13:39:44.106Z,101316.48
2023-02-27T13:42:29.034Z,101319.11
2023-02-27T13:44:57.394Z,101316.88
2023-02-27T13:47:33.187Z,101314.73
2023-02-27T13:50:02.918Z,101319.02
2023-02-27T13:52:32.717Z,101318.69
2023-02-27T13:55:11.313Z,101317.33
2023-02-27T13:57:39.439Z,101320.21
2023-02-27T14:00:24.869Z,101321.88
2023-02-27T14:03:00.495Z,101321.95
2023-02-27T14:05:40.367Z,101324.59
2023-02-27T14:08:29.641Z,101326.65
2023-02-27T14:11:21.341Z,101323.14
2023-02-27T14:13:59.173Z,101321.13
2023-02-27T14:16:39.160Z,101322.02
2023-02-27T14:19:15.375Z,101327.69
2023-02-27T14:21:52.920Z,101328.67
2023-02-27T14:24:25.605Z,101329.12
2023-02-27T14:26:54.133Z,101332.17
2023-02-27T14:29:25.913Z,101333.63
2023-02-27T14:31:54.739Z,101329.39
2023-02-27T14:34:23.062Z,101331.33
2023-02-27T14:36:52.771Z,101331.70
2023-02-27T14:39:33.759Z,101328.50
2023-02-27T14:42:32.195Z,101329.73
2023-02-27T14:45:00.005Z,101330.19
2023-02-27T14:47:33.804Z,101329.33
2023-02-27T14:50:02.310Z,101331.44
2023-02-27T14:52:32.386Z,101333.38
2023-02-27T14:55:22.140Z,101335.40
2023-02-27T14:57:58.624Z,101335.15
2023-02-27T15:00:39.764Z,101341.19
2023-02-27T15:03:25.935Z,101338.39
2023-02-27T15:05:54.120Z,101340.55
2023-02-27T15:08:25.789Z,101346.15
2023-02-27T15:10:54.475Z,101341.56
2023-02-27T15:13:31.234Z,101340.36
2023-02-27T15:16:26.436Z,101345.75
2023-02-27T15:18:57.404Z,101351.74
2023-02-27T15:21:27.838Z,101354.91
2023-02-27T15:24:03.890Z,101361.58
2023-02-27T15:26:39.101Z,101365.52
2023-02-27T15:29:08.563Z,101373.61
2023-02-27T15:31:36.051Z,101375.86
2023-02-27T15:34:04.062Z,101376.83
2023-02-27T15:36:34.750Z,101377.81
2023-02-27T15:39:06.133Z,101382.10
2023-02-27T15:41:33.937Z,101382.63
2023-02-27T15:44:02.653Z,101385.70
2023-02-27T15:46:30.476Z,101391.45
2023-02-27T15:48:58.228Z,101387.30
2023-02-27T15:51:28.076Z,101388.67
2023-02-27T15:54:00.501Z,101392.55
2023-02-27T15:56:33.809Z,101394.96
2023-02-27T15:59:01.784Z,101399.49
2023-02-27T16:01:39.033Z,101401.73
2023-02-27T16:04:20.693Z,101405.14
2023-02-27T16:06:58.632Z,101406.73
2023-02-27T16:09:30.569Z,101417.36
2023-02-27T16:12:37.186Z,101420.48
2023-02-27T16:15:23.352Z,101428.80
2023-02-27T16:18:06.848Z,101432.52
2023-02-27T16:20:47.810Z,101435.96
2023-02-27T16:23:29.446Z,101440.02
2023-02-27T16:26:23.610Z,101439.54
2023-02-27T16:28:51.494Z,101442.96
2023-02-27T16:31:25.263Z,101446.01
2023-02-27T16:33:53.955Z,101447.96
2023-02-27T16:36:23.824Z,101448.75
2023-02-27T16:38:51.310Z,101453.71
2023-02-27T16:41:20.678Z,101455.14
2023-02-27T16:43:49.299Z,101460.68
2023-02-27T16:46:21.874Z,101459.38
2023-02-27T16:48:51.286Z,101466.92
2023-02-27T16:51:23.367Z,101467.35
2023-02-27T16:53:53.952Z,101469.73
2023-02-27T16:56:35.865Z,101475.89
2023-02-27T16:59:04.868Z,101479.21
2023-02-27T17:01:33.947Z,101479.73
2023-02-27T17:04:01.573Z,101486.71
2023-02-27T17:06:29.141Z,101486.56
2023-02-27T17:08:58.024Z,101489.58
2023-02-27T17:11:25.241Z,101496.11
2023-02-27T17:13:52.368Z,101499.46
2023-02-27T17:16:19.449Z,101501.92
2023-02-27T17:18:46.608Z,101500.60
2023-02-27T17:21:13.819Z,101508.20
2023-02-27T17:23:40.917Z,101514.39
2023-02-27T17:26:08.193Z,101512.21
2023-02-27T17:28:35.285Z,101513.63
2023-02-27T17:31:03.356Z,101518.70
2023-02-27T17:33:31.926Z,101522.89
2023-02-27T17:36:07.321Z,101522.61
2023-02-27T17:38:34.924Z,101522.65
2023-02-27T17:41:09.859Z,101527.75
2023-02-27T17:43:37.238Z,101528.02
2023-02-27T17:46:08.594Z,101528.35
2023-02-27T17:48:37.656Z,101530.52
2023-02-27T17:51:07.312Z,101530.31
2023-02-27T17:53:35.805Z,101529.90
2023-02-27T17:56:03.841Z,101530.18
2023-02-27T17:58:31.668Z,101531.91
2023-02-27T18:01:09.343Z,101529.77
2023-02-27T18:03:36.460Z,101528.14
2023-02-27T18:06:04.652Z,101530.80
2023-02-27T18:08:33.273Z,101532.73
2023-02-27T18:11:01.009Z,101530.23
2023-02-27T18:13:28.623Z,101536.27
2023-02-27T18:15:56.894Z,101537.48
2023-02-27T18:18:24.372Z,101539.09
2023-02-27T18:21:06.140Z,101543.15
2023-02-27T18:23:33.551Z,101544.21
2023-02-27T18:26:00.929Z,101550.27
2023-02-27T18:28:28.771Z,101557.00
2023-02-27T18:30:56.391Z,101555.35
2023-02-27T18:33:24.380Z,101556.88
2023-02-27T18:35:51.939Z,101563.78
2023-02-27T18:38:19.300Z,101564.95
2023-02-27T18:40:46.470Z,101564.14
2023-02-27T18:43:14.186Z,101565.67
2023-02-27T18:45:41.543Z,101571.88
2023-02-27T18:48:08.947Z,101570.58
2023-02-27T18:50:36.183Z,101569.79
2023-02-27T18:53:03.434Z,101576.25
2023-02-27T18:55:30.500Z,101575.30
2023-02-27T18:57:57.702Z,101577.01
2023-02-27T19:00:24.981Z,101584.44
2023-02-27T19:02:52.178Z,101585.25
2023-02-27T19:05:19.597Z,101592.29
2023-02-27T19:07:46.925Z,101594.32
2023-02-27T19:10:15.237Z,101598.72
2023-02-27T19:12:42.756Z,101600.73
2023-02-27T19:15:11.093Z,101603.11
2023-02-27T19:17:38.242Z,101607.27
2023-02-27T19:20:06.987Z,101607.18
2023-02-27T19:22:34.551Z,101607.95
2023-02-27T19:25:01.873Z,101607.86
2023-02-27T19:27:29.267Z,101607.94
2023-02-27T19:29:56.495Z,101610.66
2023-02-27T19:32:23.730Z,101617.14
2023-02-27T19:34:51.066Z,101617.73
2023-02-27T19:37:18.407Z,101619.05
2023-02-27T19:39:46.487Z,101622.67
2023-02-27T19:42:13.789Z,101624.36
2023-02-27T19:44:41.385Z,101627.64
2023-02-27T19:47:08.705Z,101629.27
2023-02-27T19:49:35.877Z,101627.74
2023-02-27T19:52:03.704Z,101629.20
2023-02-27T19:54:30.896Z,101634.04
2023-02-27T19:56:58.301Z,101635.81
2023-02-27T19:59:25.484Z,101636.41
2023-02-27T20:01:53.400Z,101639.86
2023-02-27T20:04:20.624Z,101637.25
2023-02-27T20:06:50.089Z,101641.95
2023-02-27T20:09:18.155Z,101643.67
2023-02-27T20:11:46.924Z,101643.73
2023-02-27T20:14:15.710Z,101646.13
2023-02-27T20:16:43.960Z,101648.01
2023-02-27T20:19:14.809Z,101644.13
2023-02-27T20:21:42.454Z,101645.97
2023-02-27T20:24:14.339Z,101646.48
2023-02-27T20:26:44.179Z,101647.62
2023-02-27T20:29:15.457Z,101647.84
2023-02-27T20:31:46.325Z,101650.41
2023-02-27T20:34:15.957Z,101653.20
2023-02-27T20:36:43.969Z,101656.39
2023-02-27T20:39:12.608Z,101656.98
2023-02-27T20:41:40.515Z,101655.56
2023-02-27T20:44:08.771Z,101656.48
2023-02-27T20:46:36.552Z,101653.70
2023-02-27T20:49:06.121Z,101657.69
2023-02-27T20:51:36.244Z,101656.40
2023-02-27T20:54:06.504Z,101655.04
2023-02-27T20:56:41.489Z,101655.49
2023-02-27T20:59:14.060Z,101658.98
2023-02-27T21:01:42.882Z,101664.25
2023-02-27T21:04:10.194Z,101664.66
2023-02-27T21:06:37.670Z,101671.14
2023-02-27T21:09:06.785Z,101676.39
2023-02-27T21:11:34.440Z,101681.41
2023-02-27T21:14:06.943Z,101684.34
2023-02-27T21:16:34.223Z,101681.39
2023-02-27T21:19:01.628Z,101679.15
2023-02-27T21:21:34.077Z,101675.13
2023-02-27T21:24:01.589Z,101673.26
2023-02-27T21:26:35.073Z,101677.79
2023-02-27T21:29:12.141Z,101678.42
2023-02-27T21:31:41.248Z,101677.04
2023-02-27T21:34:14.838Z,101675.48
2023-02-27T21:36:44.113Z,101677.15
2023-02-27T21:39:20.147Z,101680.95
2023-02-27T21:41:47.913Z,101685.30
2023-02-27T21:44:18.177Z,101685.72
2023-02-27T21:46:45.832Z,101692.38
2023-02-27T21:49:18.713Z,101692.54
2023-02-27T21:51:46.851Z,101690.04
2023-02-27T21:54:15.441Z,101687.94
2023-02-27T21:56:43.827Z,101692.36
2023-02-27T21:59:11.743Z,101691.23
2023-02-27T22:01:39.160Z,101692.08
2023-02-27T22:04:07.120Z,101692.48
2023-02-27T22:06:35.271Z,101690.40
2023-02-27T22:09:05.392Z,101686.05
2023-02-27T22:11:34.406Z,101683.33
2023-02-27T22:14:02.424Z,101690.05
2023-02-27T22:16:29.676Z,101689.21
2023-02-27T22:18:56.864Z,101688.06
2023-02-27T22:21:27.112Z,101687.23
2023-02-27T22:23:56.922Z,101691.08
2023-02-27T22:26:28.275Z,101694.89
2023-02-27T22:28:57.260Z,101690.00
2023-02-27T22:31:28.283Z,101689.55
2023-02-27T22:33:59.600Z,101690.48
2023-02-27T22:36:29.387Z,101688.67
2023-02-27T22:38:57.875Z,101687.35
2023-02-27T22:41:28.184Z,101686.20
2023-02-27T22:43:55.968Z,101685.41
2023-02-27T22:46:28.369Z,101689.27
2023-02-27T22:49:03.228Z,101694.14
2023-02-27T22:51:31.340Z,101692.09
2023-02-27T22:54:01.866Z,101695.06
2023-02-27T22:56:29.559Z,101698.70
2023-02-27T22:58:57.246Z,101697.66
2023-02-27T23:01:28.387Z,101700.69
2023-02-27T23:04:01.439Z,101698.59
2023-02-27T23:06:31.878Z,101703.31
2023-02-27T23:09:00.261Z,101701.65
2023-02-27T23:11:27.877Z,101704.38
2023-02-27T23:13:55.382Z,101704.80
2023-02-27T23:16:22.774Z,101705.14
2023-02-27T23:18:52.749Z,101704.82
2023-02-27T23:21:24.163Z,101703.09
2023-02-27T23:23:53.936Z,101705.08
2023-02-27T23:26:21.387Z,101704.75
2023-02-27T23:28:48.503Z,101706.71
2023-02-27T23:31:16.100Z,101709.19
2023-02-27T23:33:43.239Z,101711.61
2023-02-27T23:36:10.250Z,101711.35
2023-02-27T23:38:37.618Z,101712.39
2023-02-27T23:41:09.653Z,101709.36
2023-02-27T23:43:36.871Z,101709.53
2023-02-27T23:46:12.512Z,101712.02
2023-02-27T23:48:40.199Z,101705.65
2023-02-27T23:51:09.174Z,101703.02
2023-02-27T23:53:40.231Z,101696.35
2023-02-27T23:56:15.243Z,101696.41
2023-02-27T23:58:42.519Z,101697.02
